Aviation Digital Data Service (ADDS)

Output produced by METARs form (0807 UTC 27 February 2020)
found at http://www.aviationweather.gov/metar/data/
 
METAR text: OEMA 270800Z 09012KT CAVOK 22/M02 Q1024 NOSIG
Conditions at: OEMA (MADINAH INTL ARP, SA) observed 0800 UTC 27 February 2020
Temperature: 22.0°C (72°F)
Dewpoint: -2.0°C (28°F) [RH = 20%]
Pressure (altimeter): 30.24 inches Hg (1024.0 mb)
Winds: from the E (90 degrees) at 14 MPH (12 knots; 6.2 m/s)
Visibility: 6 or more miles (10+ km)
Ceiling: ceiling and visibility are OK
Clouds: unknown
Weather: no significant weather observed at this time

METAR text: OEMA 270700Z 12008KT CAVOK 19/M01 Q1024 NOSIG
Conditions at: OEMA (MADINAH INTL ARP, SA) observed 0700 UTC 27 February 2020
Temperature: 19.0°C (66°F)
Dewpoint: -1.0°C (30°F) [RH = 26%]
Pressure (altimeter): 30.24 inches Hg (1024.0 mb)
Winds: from the ESE (120 degrees) at 9 MPH (8 knots; 4.1 m/s)
Visibility: 6 or more miles (10+ km)
Ceiling: ceiling and visibility are OK
Clouds: unknown
Weather: no significant weather observed at this time

METAR text: OEMA 270600Z 06008KT CAVOK 17/M01 Q1024 NOSIG
Conditions at: OEMA (MADINAH INTL ARP, SA) observed 0600 UTC 27 February 2020
Temperature: 17.0°C (63°F)
Dewpoint: -1.0°C (30°F) [RH = 29%]
Pressure (altimeter): 30.24 inches Hg (1024.0 mb)
Winds: from the ENE (60 degrees) at 9 MPH (8 knots; 4.1 m/s)
Visibility: 6 or more miles (10+ km)
Ceiling: ceiling and visibility are OK
Clouds: unknown
Weather: no significant weather observed at this time

METAR text: OEMA 270500Z 05008KT CAVOK 14/M01 Q1024 NOSIG
Conditions at: OEMA (MADINAH INTL ARP, SA) observed 0500 UTC 27 February 2020
Temperature: 14.0°C (57°F)
Dewpoint: -1.0°C (30°F) [RH = 36%]
Pressure (altimeter): 30.24 inches Hg (1024.0 mb)
Winds: from the NE (50 degrees) at 9 MPH (8 knots; 4.1 m/s)
Visibility: 6 or more miles (10+ km)
Ceiling: ceiling and visibility are OK
Clouds: unknown
Weather: no significant weather observed at this time

METAR text: OEMA 270400Z 05008KT CAVOK 13/M01 Q1023 NOSIG
Conditions at: OEMA (MADINAH INTL ARP, SA) observed 0400 UTC 27 February 2020
Temperature: 13.0°C (55°F)
Dewpoint: -1.0°C (30°F) [RH = 38%]
Pressure (altimeter): 30.21 inches Hg (1023.0 mb)
Winds: from the NE (50 degrees) at 9 MPH (8 knots; 4.1 m/s)
Visibility: 6 or more miles (10+ km)
Ceiling: ceiling and visibility are OK
Clouds: unknown
Weather: no significant weather observed at this time

METAR text: OEMA 270300Z 04006KT CAVOK 14/M02 Q1022 NOSIG
Conditions at: OEMA (MADINAH INTL ARP, SA) observed 0300 UTC 27 February 2020
Temperature: 14.0°C (57°F)
Dewpoint: -2.0°C (28°F) [RH = 33%]
Pressure (altimeter): 30.18 inches Hg (1022.0 mb)
Winds: from the NE (40 degrees) at 7 MPH (6 knots; 3.1 m/s)
Visibility: 6 or more miles (10+ km)
Ceiling: ceiling and visibility are OK
Clouds: unknown
Weather: no significant weather observed at this time

METAR text: OEMA 270200Z 03004KT CAVOK 13/M04 Q1022 NOSIG
Conditions at: OEMA (MADINAH INTL ARP, SA) observed 0200 UTC 27 February 2020
Temperature: 13.0°C (55°F)
Dewpoint: -4.0°C (25°F) [RH = 30%]
Pressure (altimeter): 30.18 inches Hg (1022.0 mb)
Winds: from the NNE (30 degrees) at 5 MPH (4 knots; 2.1 m/s)
Visibility: 6 or more miles (10+ km)
Ceiling: ceiling and visibility are OK
Clouds: unknown
Weather: no significant weather observed at this time

METAR text: OEMA 270100Z 04005KT CAVOK 15/M03 Q1022 NOSIG
Conditions at: OEMA (MADINAH INTL ARP, SA) observed 0100 UTC 27 February 2020
Temperature: 15.0°C (59°F)
Dewpoint: -3.0°C (27°F) [RH = 29%]
Pressure (altimeter): 30.18 inches Hg (1022.0 mb)
Winds: from the NE (40 degrees) at 6 MPH (5 knots; 2.6 m/s)
Visibility: 6 or more miles (10+ km)
Ceiling: ceiling and visibility are OK
Clouds: unknown
Weather: no significant weather observed at this time

METAR text: OEMA 270000Z 05008KT CAVOK 15/M03 Q1022 NOSIG
Conditions at: OEMA (MADINAH INTL ARP, SA) observed 0000 UTC 27 February 2020
Temperature: 15.0°C (59°F)
Dewpoint: -3.0°C (27°F) [RH = 29%]
Pressure (altimeter): 30.18 inches Hg (1022.0 mb)
Winds: from the NE (50 degrees) at 9 MPH (8 knots; 4.1 m/s)
Visibility: 6 or more miles (10+ km)
Ceiling: ceiling and visibility are OK
Clouds: unknown
Weather: no significant weather observed at this time

METAR text: OEMA 262300Z 06005KT CAVOK 16/M05 Q1022 NOSIG
Conditions at: OEMA (MADINAH INTL ARP, SA) observed 2300 UTC 26 February 2020
Temperature: 16.0°C (61°F)
Dewpoint: -5.0°C (23°F) [RH = 23%]
Pressure (altimeter): 30.18 inches Hg (1022.0 mb)
Winds: from the ENE (60 degrees) at 6 MPH (5 knots; 2.6 m/s)
Visibility: 6 or more miles (10+ km)
Ceiling: ceiling and visibility are OK
Clouds: unknown
Weather: no significant weather observed at this time

METAR text: OEMA 262200Z 00000KT CAVOK 15/M06 Q1022 NOSIG
Conditions at: OEMA (MADINAH INTL ARP, SA) observed 2200 UTC 26 February 2020
Temperature: 15.0°C (59°F)
Dewpoint: -6.0°C (21°F) [RH = 23%]
Pressure (altimeter): 30.18 inches Hg (1022.0 mb)
Winds: calm
Visibility: 6 or more miles (10+ km)
Ceiling: ceiling and visibility are OK
Clouds: unknown
Weather: no significant weather observed at this time

METAR text: OEMA 262100Z 34004KT CAVOK 15/M07 Q1022 NOSIG
Conditions at: OEMA (MADINAH INTL ARP, SA) observed 2100 UTC 26 February 2020
Temperature: 15.0°C (59°F)
Dewpoint: -7.0°C (19°F) [RH = 21%]
Pressure (altimeter): 30.18 inches Hg (1022.0 mb)
Winds: from the NNW (340 degrees) at 5 MPH (4 knots; 2.1 m/s)
Visibility: 6 or more miles (10+ km)
Ceiling: ceiling and visibility are OK
Clouds: unknown
Weather: no significant weather observed at this time

METAR text: OEMA 262000Z 00000KT CAVOK 17/M06 Q1022 NOSIG
Conditions at: OEMA (MADINAH INTL ARP, SA) observed 2000 UTC 26 February 2020
Temperature: 17.0°C (63°F)
Dewpoint: -6.0°C (21°F) [RH = 20%]
Pressure (altimeter): 30.18 inches Hg (1022.0 mb)
Winds: calm
Visibility: 6 or more miles (10+ km)
Ceiling: ceiling and visibility are OK
Clouds: unknown
Weather: no significant weather observed at this time

METAR text: OEMA 261900Z 00000KT CAVOK 18/M06 Q1021 NOSIG
Conditions at: OEMA (MADINAH INTL ARP, SA) observed 1900 UTC 26 February 2020
Temperature: 18.0°C (64°F)
Dewpoint: -6.0°C (21°F) [RH = 19%]
Pressure (altimeter): 30.15 inches Hg (1021.0 mb)
Winds: calm
Visibility: 6 or more miles (10+ km)
Ceiling: ceiling and visibility are OK
Clouds: unknown
Weather: no significant weather observed at this time

METAR text: OEMA 261800Z 33003KT CAVOK 20/M06 Q1021 NOSIG
Conditions at: OEMA (MADINAH INTL ARP, SA) observed 1800 UTC 26 February 2020
Temperature: 20.0°C (68°F)
Dewpoint: -6.0°C (21°F) [RH = 17%]
Pressure (altimeter): 30.15 inches Hg (1021.0 mb)
Winds: from the NNW (330 degrees) at 3 MPH (3 knots; 1.5 m/s)
Visibility: 6 or more miles (10+ km)
Ceiling: ceiling and visibility are OK
Clouds: unknown
Weather: no significant weather observed at this time

METAR text: OEMA 261700Z 34003KT CAVOK 21/M05 Q1020 NOSIG
Conditions at: OEMA (MADINAH INTL ARP, SA) observed 1700 UTC 26 February 2020
Temperature: 21.0°C (70°F)
Dewpoint: -5.0°C (23°F) [RH = 17%]
Pressure (altimeter): 30.12 inches Hg (1020.0 mb)
Winds: from the NNW (340 degrees) at 3 MPH (3 knots; 1.5 m/s)
Visibility: 6 or more miles (10+ km)
Ceiling: ceiling and visibility are OK
Clouds: unknown
Weather: no significant weather observed at this time

METAR text: OEMA 261600Z 28003KT CAVOK 22/M05 Q1020 NOSIG
Conditions at: OEMA (MADINAH INTL ARP, SA) observed 1600 UTC 26 February 2020
Temperature: 22.0°C (72°F)
Dewpoint: -5.0°C (23°F) [RH = 16%]
Pressure (altimeter): 30.12 inches Hg (1020.0 mb)
Winds: from the W (280 degrees) at 3 MPH (3 knots; 1.5 m/s)
Visibility: 6 or more miles (10+ km)
Ceiling: ceiling and visibility are OK
Clouds: unknown
Weather: no significant weather observed at this time

METAR text: OEMA 261500Z 30004KT CAVOK 23/M05 Q1020 NOSIG
Conditions at: OEMA (MADINAH INTL ARP, SA) observed 1500 UTC 26 February 2020
Temperature: 23.0°C (73°F)
Dewpoint: -5.0°C (23°F) [RH = 15%]
Pressure (altimeter): 30.12 inches Hg (1020.0 mb)
Winds: from the WNW (300 degrees) at 5 MPH (4 knots; 2.1 m/s)
Visibility: 6 or more miles (10+ km)
Ceiling: ceiling and visibility are OK
Clouds: unknown
Weather: no significant weather observed at this time

METAR text: OEMA 261400Z 33007KT CAVOK 23/M06 Q1020 NOSIG
Conditions at: OEMA (MADINAH INTL ARP, SA) observed 1400 UTC 26 February 2020
Temperature: 23.0°C (73°F)
Dewpoint: -6.0°C (21°F) [RH = 14%]
Pressure (altimeter): 30.12 inches Hg (1020.0 mb)
Winds: from the NNW (330 degrees) at 8 MPH (7 knots; 3.6 m/s)
Visibility: 6 or more miles (10+ km)
Ceiling: ceiling and visibility are OK
Clouds: unknown
Weather: no significant weather observed at this time

METAR text: OEMA 261300Z 00000KT CAVOK 23/M03 Q1020 NOSIG
Conditions at: OEMA (MADINAH INTL ARP, SA) observed 1300 UTC 26 February 2020
Temperature: 23.0°C (73°F)
Dewpoint: -3.0°C (27°F) [RH = 17%]
Pressure (altimeter): 30.12 inches Hg (1020.0 mb)
Winds: calm
Visibility: 6 or more miles (10+ km)
Ceiling: ceiling and visibility are OK
Clouds: unknown
Weather: no significant weather observed at this time

METAR text: OEMA 261200Z 00000KT CAVOK 21/M03 Q1020 NOSIG
Conditions at: OEMA (MADINAH INTL ARP, SA) observed 1200 UTC 26 February 2020
Temperature: 21.0°C (70°F)
Dewpoint: -3.0°C (27°F) [RH = 20%]
Pressure (altimeter): 30.12 inches Hg (1020.0 mb)
Winds: calm
Visibility: 6 or more miles (10+ km)
Ceiling: ceiling and visibility are OK
Clouds: unknown
Weather: no significant weather observed at this time

METAR text: OEMA 261100Z 22004KT CAVOK 20/M02 Q1021 NOSIG
Conditions at: OEMA (MADINAH INTL ARP, SA) observed 1100 UTC 26 February 2020
Temperature: 20.0°C (68°F)
Dewpoint: -2.0°C (28°F) [RH = 23%]
Pressure (altimeter): 30.15 inches Hg (1021.0 mb)
Winds: from the SW (220 degrees) at 5 MPH (4 knots; 2.1 m/s)
Visibility: 6 or more miles (10+ km)
Ceiling: ceiling and visibility are OK
Clouds: unknown
Weather: no significant weather observed at this time

METAR text: OEMA 261000Z 02004KT CAVOK 19/M01 Q1022 NOSIG
Conditions at: OEMA (MADINAH INTL ARP, SA) observed 1000 UTC 26 February 2020
Temperature: 19.0°C (66°F)
Dewpoint: -1.0°C (30°F) [RH = 26%]
Pressure (altimeter): 30.18 inches Hg (1022.0 mb)
Winds: from the NNE (20 degrees) at 5 MPH (4 knots; 2.1 m/s)
Visibility: 6 or more miles (10+ km)
Ceiling: ceiling and visibility are OK
Clouds: unknown
Weather: no significant weather observed at this time

METAR text: OEMA 260900Z 05005KT CAVOK 17/00 Q1023 NOSIG
Conditions at: OEMA (MADINAH INTL ARP, SA) observed 0900 UTC 26 February 2020
Temperature: 17.0°C (63°F)
Dewpoint: 0.0°C (32°F) [RH = 32%]
Pressure (altimeter): 30.21 inches Hg (1023.0 mb)
Winds: from the NE (50 degrees) at 6 MPH (5 knots; 2.6 m/s)
Visibility: 6 or more miles (10+ km)
Ceiling: ceiling and visibility are OK
Clouds: unknown
Weather: no significant weather observed at this time

METAR text: OEMA 260800Z 08005KT CAVOK 17/00 Q1024 NOSIG
Conditions at: OEMA (MADINAH INTL ARP, SA) observed 0800 UTC 26 February 2020
Temperature: 17.0°C (63°F)
Dewpoint: 0.0°C (32°F) [RH = 32%]
Pressure (altimeter): 30.24 inches Hg (1024.0 mb)
Winds: from the E (80 degrees) at 6 MPH (5 knots; 2.6 m/s)
Visibility: 6 or more miles (10+ km)
Ceiling: ceiling and visibility are OK
Clouds: unknown
Weather: no significant weather observed at this time

METAR text: OEMA 260700Z 11004KT CAVOK 15/01 Q1024 NOSIG
Conditions at: OEMA (MADINAH INTL ARP, SA) observed 0700 UTC 26 February 2020
Temperature: 15.0°C (59°F)
Dewpoint: 1.0°C (34°F) [RH = 39%]
Pressure (altimeter): 30.24 inches Hg (1024.0 mb)
Winds: from the ESE (110 degrees) at 5 MPH (4 knots; 2.1 m/s)
Visibility: 6 or more miles (10+ km)
Ceiling: ceiling and visibility are OK
Clouds: unknown
Weather: no significant weather observed at this time

METAR text: OEMA 260600Z 12006KT CAVOK 13/01 Q1024 NOSIG
Conditions at: OEMA (MADINAH INTL ARP, SA) observed 0600 UTC 26 February 2020
Temperature: 13.0°C (55°F)
Dewpoint: 1.0°C (34°F) [RH = 44%]
Pressure (altimeter): 30.24 inches Hg (1024.0 mb)
Winds: from the ESE (120 degrees) at 7 MPH (6 knots; 3.1 m/s)
Visibility: 6 or more miles (10+ km)
Ceiling: ceiling and visibility are OK
Clouds: unknown
Weather: no significant weather observed at this time

METAR text: OEMA 260500Z 12004KT CAVOK 11/01 Q1023 NOSIG
Conditions at: OEMA (MADINAH INTL ARP, SA) observed 0500 UTC 26 February 2020
Temperature: 11.0°C (52°F)
Dewpoint: 1.0°C (34°F) [RH = 50%]
Pressure (altimeter): 30.21 inches Hg (1023.0 mb)
Winds: from the ESE (120 degrees) at 5 MPH (4 knots; 2.1 m/s)
Visibility: 6 or more miles (10+ km)
Ceiling: ceiling and visibility are OK
Clouds: unknown
Weather: no significant weather observed at this time

METAR text: OEMA 260400Z 00000KT CAVOK 10/01 Q1022 NOSIG
Conditions at: OEMA (MADINAH INTL ARP, SA) observed 0400 UTC 26 February 2020
Temperature: 10.0°C (50°F)
Dewpoint: 1.0°C (34°F) [RH = 53%]
Pressure (altimeter): 30.18 inches Hg (1022.0 mb)
Winds: calm
Visibility: 6 or more miles (10+ km)
Ceiling: ceiling and visibility are OK
Clouds: unknown
Weather: no significant weather observed at this time

METAR text: OEMA 260300Z 00000KT CAVOK 11/01 Q1022 NOSIG
Conditions at: OEMA (MADINAH INTL ARP, SA) observed 0300 UTC 26 February 2020
Temperature: 11.0°C (52°F)
Dewpoint: 1.0°C (34°F) [RH = 50%]
Pressure (altimeter): 30.18 inches Hg (1022.0 mb)
Winds: calm
Visibility: 6 or more miles (10+ km)
Ceiling: ceiling and visibility are OK
Clouds: unknown
Weather: no significant weather observed at this time

METAR text: OEMA 260200Z 32004KT CAVOK 11/01 Q1021 NOSIG
Conditions at: OEMA (MADINAH INTL ARP, SA) observed 0200 UTC 26 February 2020
Temperature: 11.0°C (52°F)
Dewpoint: 1.0°C (34°F) [RH = 50%]
Pressure (altimeter): 30.15 inches Hg (1021.0 mb)
Winds: from the NW (320 degrees) at 5 MPH (4 knots; 2.1 m/s)
Visibility: 6 or more miles (10+ km)
Ceiling: ceiling and visibility are OK
Clouds: unknown
Weather: no significant weather observed at this time

METAR text: OEMA 260100Z 33004KT CAVOK 12/02 Q1020 NOSIG
Conditions at: OEMA (MADINAH INTL ARP, SA) observed 0100 UTC 26 February 2020
Temperature: 12.0°C (54°F)
Dewpoint: 2.0°C (36°F) [RH = 50%]
Pressure (altimeter): 30.12 inches Hg (1020.0 mb)
Winds: from the NNW (330 degrees) at 5 MPH (4 knots; 2.1 m/s)
Visibility: 6 or more miles (10+ km)
Ceiling: ceiling and visibility are OK
Clouds: unknown
Weather: no significant weather observed at this time

METAR text: OEMA 260000Z 32008KT CAVOK 12/02 Q1020 NOSIG
Conditions at: OEMA (MADINAH INTL ARP, SA) observed 0000 UTC 26 February 2020
Temperature: 12.0°C (54°F)
Dewpoint: 2.0°C (36°F) [RH = 50%]
Pressure (altimeter): 30.12 inches Hg (1020.0 mb)
Winds: from the NW (320 degrees) at 9 MPH (8 knots; 4.1 m/s)
Visibility: 6 or more miles (10+ km)
Ceiling: ceiling and visibility are OK
Clouds: unknown
Weather: no significant weather observed at this time

METAR text: OEMA 252300Z 35005KT CAVOK 13/01 Q1021 NOSIG
Conditions at: OEMA (MADINAH INTL ARP, SA) observed 2300 UTC 25 February 2020
Temperature: 13.0°C (55°F)
Dewpoint: 1.0°C (34°F) [RH = 44%]
Pressure (altimeter): 30.15 inches Hg (1021.0 mb)
Winds: from the N (350 degrees) at 6 MPH (5 knots; 2.6 m/s)
Visibility: 6 or more miles (10+ km)
Ceiling: ceiling and visibility are OK
Clouds: unknown
Weather: no significant weather observed at this time

METAR text: OEMA 252200Z 33009KT CAVOK 14/02 Q1021 NOSIG
Conditions at: OEMA (MADINAH INTL ARP, SA) observed 2200 UTC 25 February 2020
Temperature: 14.0°C (57°F)
Dewpoint: 2.0°C (36°F) [RH = 44%]
Pressure (altimeter): 30.15 inches Hg (1021.0 mb)
Winds: from the NNW (330 degrees) at 10 MPH (9 knots; 4.6 m/s)
Visibility: 6 or more miles (10+ km)
Ceiling: ceiling and visibility are OK
Clouds: unknown
Weather: no significant weather observed at this time

METAR text: OEMA 252100Z 31011KT CAVOK 15/02 Q1021 NOSIG
Conditions at: OEMA (MADINAH INTL ARP, SA) observed 2100 UTC 25 February 2020
Temperature: 15.0°C (59°F)
Dewpoint: 2.0°C (36°F) [RH = 41%]
Pressure (altimeter): 30.15 inches Hg (1021.0 mb)
Winds: from the NW (310 degrees) at 13 MPH (11 knots; 5.7 m/s)
Visibility: 6 or more miles (10+ km)
Ceiling: ceiling and visibility are OK
Clouds: unknown
Weather: no significant weather observed at this time

Forecast for: OEMA (MADINAH INTL ARP, SA)
Text: TAF OEMA 270500Z 2706/2812 12010G20KT 6000 NSC
Forecast period: 0600 UTC 27 February 2020 to 1200 UTC 28 February 2020
Forecast type: FROM: standard forecast or significant change
Winds: from the ESE (120 degrees) at 12 MPH (10 knots; 5.1 m/s)
gusting to 23 MPH (20 knots; 10.3 m/s)
Visibility: 4 miles (6 km)
Ceiling: unknown
Clouds: missing
Weather: no significant weather forecast for this period